sensor_id;sensor_type;location;lat;lon;timestamp;P1;durP1;ratioP1;P2;durP2;ratioP2
65853;SDS011;52627;48.838;2.402;2022-12-16T00:01:27;18.10;;;9.20;;
65853;SDS011;52627;48.838;2.402;2022-12-16T00:03:55;20.30;;;10.70;;
65853;SDS011;52627;48.838;2.402;2022-12-16T00:06:26;18.40;;;10.00;;
65853;SDS011;52627;48.838;2.402;2022-12-16T00:08:55;17.10;;;10.50;;
65853;SDS011;52627;48.838;2.402;2022-12-16T00:11:22;20.20;;;10.70;;
65853;SDS011;52627;48.838;2.402;2022-12-16T00:13:49;20.20;;;10.50;;
65853;SDS011;52627;48.838;2.402;2022-12-16T00:16:17;22.70;;;10.90;;
65853;SDS011;52627;48.838;2.402;2022-12-16T00:18:46;22.10;;;11.50;;
65853;SDS011;52627;48.838;2.402;2022-12-16T00:21:13;19.40;;;11.20;;
65853;SDS011;52627;48.838;2.402;2022-12-16T00:23:40;19.50;;;10.80;;
65853;SDS011;52627;48.838;2.402;2022-12-16T00:26:08;19.40;;;11.30;;
65853;SDS011;52627;48.838;2.402;2022-12-16T00:28:35;20.80;;;11.60;;
65853;SDS011;52627;48.838;2.402;2022-12-16T00:31:02;22.40;;;12.40;;
65853;SDS011;52627;48.838;2.402;2022-12-16T00:33:30;23.00;;;12.90;;
65853;SDS011;52627;48.838;2.402;2022-12-16T00:35:57;23.10;;;13.20;;
65853;SDS011;52627;48.838;2.402;2022-12-16T00:38:25;24.00;;;11.80;;
65853;SDS011;52627;48.838;2.402;2022-12-16T00:40:52;22.90;;;12.60;;
65853;SDS011;52627;48.838;2.402;2022-12-16T00:43:19;24.80;;;13.90;;
65853;SDS011;52627;48.838;2.402;2022-12-16T00:45:47;23.30;;;12.90;;
65853;SDS011;52627;48.838;2.402;2022-12-16T00:48:14;22.40;;;13.50;;
65853;SDS011;52627;48.838;2.402;2022-12-16T00:50:48;23.60;;;13.20;;
65853;SDS011;52627;48.838;2.402;2022-12-16T00:53:19;21.50;;;12.40;;
65853;SDS011;52627;48.838;2.402;2022-12-16T00:55:46;23.10;;;13.50;;
65853;SDS011;52627;48.838;2.402;2022-12-16T00:58:13;23.80;;;13.70;;
65853;SDS011;52627;48.838;2.402;2022-12-16T01:00:40;18.80;;;11.90;;
65853;SDS011;52627;48.838;2.402;2022-12-16T01:03:07;25.60;;;13.90;;
65853;SDS011;52627;48.838;2.402;2022-12-16T01:05:36;21.30;;;12.00;;
65853;SDS011;52627;48.838;2.402;2022-12-16T01:08:03;22.60;;;13.20;;
65853;SDS011;52627;48.838;2.402;2022-12-16T01:10:30;23.70;;;13.20;;
65853;SDS011;52627;48.838;2.402;2022-12-16T01:12:57;25.00;;;13.20;;
65853;SDS011;52627;48.838;2.402;2022-12-16T01:15:24;23.40;;;13.40;;
65853;SDS011;52627;48.838;2.402;2022-12-16T01:17:51;25.90;;;12.70;;
65853;SDS011;52627;48.838;2.402;2022-12-16T01:20:18;23.20;;;13.20;;
65853;SDS011;52627;48.838;2.402;2022-12-16T01:22:45;21.70;;;12.80;;
65853;SDS011;52627;48.838;2.402;2022-12-16T01:25:12;20.50;;;12.00;;
65853;SDS011;52627;48.838;2.402;2022-12-16T01:27:38;24.70;;;13.30;;
65853;SDS011;52627;48.838;2.402;2022-12-16T01:30:06;22.20;;;13.10;;
65853;SDS011;52627;48.838;2.402;2022-12-16T01:32:35;20.70;;;12.20;;
65853;SDS011;52627;48.838;2.402;2022-12-16T01:35:02;23.20;;;14.10;;
65853;SDS011;52627;48.838;2.402;2022-12-16T01:37:29;21.80;;;12.80;;
65853;SDS011;52627;48.838;2.402;2022-12-16T01:39:56;21.60;;;13.20;;
65853;SDS011;52627;48.838;2.402;2022-12-16T01:42:23;23.60;;;13.30;;
65853;SDS011;52627;48.838;2.402;2022-12-16T01:44:50;23.40;;;13.20;;
65853;SDS011;52627;48.838;2.402;2022-12-16T01:47:25;22.60;;;13.90;;
65853;SDS011;52627;48.838;2.402;2022-12-16T01:50:00;24.70;;;14.30;;
65853;SDS011;52627;48.838;2.402;2022-12-16T01:52:33;23.00;;;13.30;;
65853;SDS011;52627;48.838;2.402;2022-12-16T01:55:08;26.60;;;13.80;;
65853;SDS011;52627;48.838;2.402;2022-12-16T01:57:45;24.70;;;14.10;;
65853;SDS011;52627;48.838;2.402;2022-12-16T02:00:15;21.00;;;13.20;;
65853;SDS011;52627;48.838;2.402;2022-12-16T02:02:43;22.90;;;13.50;;
65853;SDS011;52627;48.838;2.402;2022-12-16T02:05:13;26.80;;;14.00;;
65853;SDS011;52627;48.838;2.402;2022-12-16T02:22:32;27.20;;;15.20;;
65853;SDS011;52627;48.838;2.402;2022-12-16T02:34:07;29.80;;;16.50;;
65853;SDS011;52627;48.838;2.402;2022-12-16T02:36:57;26.60;;;15.40;;
65853;SDS011;52627;48.838;2.402;2022-12-16T02:39:31;26.40;;;15.40;;
65853;SDS011;52627;48.838;2.402;2022-12-16T02:42:15;27.80;;;15.20;;
65853;SDS011;52627;48.838;2.402;2022-12-16T02:44:59;23.80;;;14.50;;
65853;SDS011;52627;48.838;2.402;2022-12-16T02:49:56;23.10;;;14.10;;
65853;SDS011;52627;48.838;2.402;2022-12-16T02:52:29;26.50;;;15.00;;
65853;SDS011;52627;48.838;2.402;2022-12-16T02:55:02;25.60;;;14.60;;
65853;SDS011;52627;48.838;2.402;2022-12-16T02:57:54;25.50;;;14.70;;
65853;SDS011;52627;48.838;2.402;2022-12-16T03:00:27;24.30;;;14.70;;
65853;SDS011;52627;48.838;2.402;2022-12-16T03:03:06;30.60;;;16.20;;
65853;SDS011;52627;48.838;2.402;2022-12-16T03:05:43;24.80;;;14.60;;
65853;SDS011;52627;48.838;2.402;2022-12-16T03:08:21;28.30;;;16.50;;
65853;SDS011;52627;48.838;2.402;2022-12-16T03:10:56;26.10;;;16.60;;
65853;SDS011;52627;48.838;2.402;2022-12-16T03:13:30;30.40;;;16.80;;
65853;SDS011;52627;48.838;2.402;2022-12-16T03:16:04;25.70;;;16.50;;
65853;SDS011;52627;48.838;2.402;2022-12-16T03:18:32;28.60;;;16.20;;
65853;SDS011;52627;48.838;2.402;2022-12-16T03:21:03;26.20;;;16.00;;
65853;SDS011;52627;48.838;2.402;2022-12-16T03:26:22;27.30;;;16.40;;
65853;SDS011;52627;48.838;2.402;2022-12-16T03:28:59;28.60;;;16.60;;
65853;SDS011;52627;48.838;2.402;2022-12-16T03:31:35;26.50;;;17.10;;
65853;SDS011;52627;48.838;2.402;2022-12-16T03:34:16;25.30;;;16.30;;
65853;SDS011;52627;48.838;2.402;2022-12-16T03:37:07;26.20;;;17.10;;
65853;SDS011;52627;48.838;2.402;2022-12-16T03:39:41;24.00;;;17.10;;
65853;SDS011;52627;48.838;2.402;2022-12-16T03:42:12;26.70;;;16.80;;
65853;SDS011;52627;48.838;2.402;2022-12-16T03:44:45;27.60;;;16.80;;
65853;SDS011;52627;48.838;2.402;2022-12-16T03:47:12;28.40;;;17.20;;
65853;SDS011;52627;48.838;2.402;2022-12-16T03:49:47;29.60;;;16.70;;
65853;SDS011;52627;48.838;2.402;2022-12-16T03:52:14;27.40;;;15.90;;
65853;SDS011;52627;48.838;2.402;2022-12-16T03:54:41;24.60;;;16.10;;
65853;SDS011;52627;48.838;2.402;2022-12-16T03:57:07;27.00;;;15.90;;
65853;SDS011;52627;48.838;2.402;2022-12-16T03:59:42;21.90;;;14.80;;
65853;SDS011;52627;48.838;2.402;2022-12-16T04:02:09;24.10;;;15.70;;
65853;SDS011;52627;48.838;2.402;2022-12-16T04:04:36;25.30;;;12.90;;
65853;SDS011;52627;48.838;2.402;2022-12-16T04:07:02;23.20;;;13.90;;
65853;SDS011;52627;48.838;2.402;2022-12-16T04:09:48;25.10;;;14.60;;
65853;SDS011;52627;48.838;2.402;2022-12-16T04:12:16;21.40;;;13.70;;
65853;SDS011;52627;48.838;2.402;2022-12-16T04:15:03;26.10;;;14.90;;
65853;SDS011;52627;48.838;2.402;2022-12-16T04:17:49;24.60;;;14.60;;
65853;SDS011;52627;48.838;2.402;2022-12-16T04:20:37;24.50;;;14.00;;
65853;SDS011;52627;48.838;2.402;2022-12-16T04:23:25;22.00;;;13.10;;
65853;SDS011;52627;48.838;2.402;2022-12-16T04:26:11;18.90;;;12.10;;
65853;SDS011;52627;48.838;2.402;2022-12-16T04:28:39;21.00;;;12.70;;
65853;SDS011;52627;48.838;2.402;2022-12-16T04:31:06;20.30;;;12.80;;
65853;SDS011;52627;48.838;2.402;2022-12-16T04:33:33;22.50;;;13.10;;
65853;SDS011;52627;48.838;2.402;2022-12-16T04:36:18;20.50;;;12.10;;
65853;SDS011;52627;48.838;2.402;2022-12-16T04:39:03;19.30;;;12.20;;
65853;SDS011;52627;48.838;2.402;2022-12-16T04:41:54;17.70;;;11.80;;
65853;SDS011;52627;48.838;2.402;2022-12-16T04:44:41;20.10;;;11.80;;
65853;SDS011;52627;48.838;2.402;2022-12-16T04:47:26;19.20;;;12.90;;
65853;SDS011;52627;48.838;2.402;2022-12-16T04:50:12;22.80;;;11.90;;
65853;SDS011;52627;48.838;2.402;2022-12-16T04:52:58;19.70;;;11.60;;
65853;SDS011;52627;48.838;2.402;2022-12-16T04:56:00;17.50;;;11.00;;
65853;SDS011;52627;48.838;2.402;2022-12-16T04:58:46;24.20;;;11.80;;
65853;SDS011;52627;48.838;2.402;2022-12-16T05:01:31;24.00;;;12.10;;
65853;SDS011;52627;48.838;2.402;2022-12-16T05:04:17;22.90;;;12.90;;
65853;SDS011;52627;48.838;2.402;2022-12-16T05:07:02;22.20;;;12.30;;
65853;SDS011;52627;48.838;2.402;2022-12-16T05:09:47;22.30;;;12.40;;
65853;SDS011;52627;48.838;2.402;2022-12-16T05:12:33;21.30;;;12.30;;
65853;SDS011;52627;48.838;2.402;2022-12-16T05:15:18;23.20;;;12.40;;
65853;SDS011;52627;48.838;2.402;2022-12-16T05:18:12;15.90;;;10.80;;
65853;SDS011;52627;48.838;2.402;2022-12-16T05:21:00;17.90;;;11.10;;
65853;SDS011;52627;48.838;2.402;2022-12-16T05:23:47;19.40;;;11.00;;
65853;SDS011;52627;48.838;2.402;2022-12-16T05:26:32;22.40;;;11.90;;
65853;SDS011;52627;48.838;2.402;2022-12-16T05:29:18;20.70;;;11.60;;
65853;SDS011;52627;48.838;2.402;2022-12-16T05:32:03;20.90;;;11.00;;
65853;SDS011;52627;48.838;2.402;2022-12-16T05:34:48;18.60;;;10.30;;
65853;SDS011;52627;48.838;2.402;2022-12-16T05:37:34;19.30;;;11.20;;
65853;SDS011;52627;48.838;2.402;2022-12-16T05:40:19;18.40;;;10.80;;
65853;SDS011;52627;48.838;2.402;2022-12-16T05:43:04;23.70;;;11.20;;
65853;SDS011;52627;48.838;2.402;2022-12-16T05:45:50;17.30;;;9.80;;
65853;SDS011;52627;48.838;2.402;2022-12-16T05:48:36;19.00;;;11.00;;
65853;SDS011;52627;48.838;2.402;2022-12-16T05:51:21;19.40;;;10.10;;
65853;SDS011;52627;48.838;2.402;2022-12-16T05:54:06;19.60;;;10.10;;
65853;SDS011;52627;48.838;2.402;2022-12-16T05:56:51;21.10;;;10.20;;
65853;SDS011;52627;48.838;2.402;2022-12-16T05:59:37;19.40;;;10.30;;
65853;SDS011;52627;48.838;2.402;2022-12-16T06:02:22;21.70;;;10.80;;
65853;SDS011;52627;48.838;2.402;2022-12-16T06:05:08;18.80;;;10.40;;
65853;SDS011;52627;48.838;2.402;2022-12-16T06:07:53;16.90;;;9.90;;
65853;SDS011;52627;48.838;2.402;2022-12-16T06:10:39;17.50;;;10.20;;
65853;SDS011;52627;48.838;2.402;2022-12-16T06:13:24;19.90;;;10.20;;
65853;SDS011;52627;48.838;2.402;2022-12-16T06:16:09;18.60;;;11.10;;
65853;SDS011;52627;48.838;2.402;2022-12-16T06:18:54;19.70;;;10.60;;
65853;SDS011;52627;48.838;2.402;2022-12-16T06:21:40;19.80;;;9.60;;
65853;SDS011;52627;48.838;2.402;2022-12-16T06:24:25;19.10;;;10.20;;
65853;SDS011;52627;48.838;2.402;2022-12-16T06:27:10;18.00;;;10.70;;
65853;SDS011;52627;48.838;2.402;2022-12-16T06:29:56;22.50;;;10.80;;
65853;SDS011;52627;48.838;2.402;2022-12-16T06:32:41;19.90;;;9.90;;
65853;SDS011;52627;48.838;2.402;2022-12-16T06:35:27;18.30;;;10.70;;
65853;SDS011;52627;48.838;2.402;2022-12-16T06:38:12;18.90;;;9.90;;
65853;SDS011;52627;48.838;2.402;2022-12-16T06:40:57;19.00;;;10.10;;
65853;SDS011;52627;48.838;2.402;2022-12-16T06:43:43;20.50;;;10.20;;
65853;SDS011;52627;48.838;2.402;2022-12-16T06:46:28;20.90;;;10.30;;
65853;SDS011;52627;48.838;2.402;2022-12-16T06:49:13;19.60;;;10.20;;
65853;SDS011;52627;48.838;2.402;2022-12-16T06:51:59;18.60;;;10.70;;
65853;SDS011;52627;48.838;2.402;2022-12-16T06:54:44;19.90;;;9.90;;
65853;SDS011;52627;48.838;2.402;2022-12-16T06:57:29;19.80;;;11.50;;
65853;SDS011;52627;48.838;2.402;2022-12-16T07:00:15;20.30;;;11.20;;
65853;SDS011;52627;48.838;2.402;2022-12-16T07:03:00;18.00;;;10.70;;
65853;SDS011;52627;48.838;2.402;2022-12-16T07:05:46;16.90;;;10.50;;
65853;SDS011;52627;48.838;2.402;2022-12-16T07:08:31;19.10;;;10.70;;
65853;SDS011;52627;48.838;2.402;2022-12-16T07:11:16;18.70;;;10.30;;
65853;SDS011;52627;48.838;2.402;2022-12-16T07:14:01;20.00;;;11.30;;
65853;SDS011;52627;48.838;2.402;2022-12-16T07:16:46;16.50;;;10.40;;
65853;SDS011;52627;48.838;2.402;2022-12-16T07:19:31;15.60;;;9.90;;
65853;SDS011;52627;48.838;2.402;2022-12-16T07:22:17;19.00;;;10.80;;
65853;SDS011;52627;48.838;2.402;2022-12-16T07:25:13;23.00;;;10.90;;
65853;SDS011;52627;48.838;2.402;2022-12-16T07:27:58;21.60;;;11.50;;
65853;SDS011;52627;48.838;2.402;2022-12-16T07:30:44;23.10;;;10.70;;
65853;SDS011;52627;48.838;2.402;2022-12-16T07:33:29;18.80;;;11.30;;
65853;SDS011;52627;48.838;2.402;2022-12-16T07:36:14;20.20;;;10.70;;
65853;SDS011;52627;48.838;2.402;2022-12-16T07:38:59;19.10;;;11.50;;
65853;SDS011;52627;48.838;2.402;2022-12-16T07:41:45;24.40;;;12.20;;
65853;SDS011;52627;48.838;2.402;2022-12-16T07:44:30;20.00;;;10.70;;
65853;SDS011;52627;48.838;2.402;2022-12-16T07:47:15;24.30;;;11.60;;
65853;SDS011;52627;48.838;2.402;2022-12-16T07:50:01;22.50;;;11.80;;
65853;SDS011;52627;48.838;2.402;2022-12-16T07:52:56;20.10;;;11.80;;
65853;SDS011;52627;48.838;2.402;2022-12-16T07:55:42;21.30;;;11.20;;
65853;SDS011;52627;48.838;2.402;2022-12-16T07:58:28;19.60;;;11.60;;
65853;SDS011;52627;48.838;2.402;2022-12-16T08:01:14;22.00;;;11.70;;
65853;SDS011;52627;48.838;2.402;2022-12-16T08:03:59;22.80;;;10.90;;
65853;SDS011;52627;48.838;2.402;2022-12-16T08:06:45;23.20;;;11.80;;
65853;SDS011;52627;48.838;2.402;2022-12-16T08:09:30;20.00;;;11.80;;
65853;SDS011;52627;48.838;2.402;2022-12-16T08:12:15;23.30;;;11.20;;
65853;SDS011;52627;48.838;2.402;2022-12-16T08:15:00;22.80;;;11.70;;
65853;SDS011;52627;48.838;2.402;2022-12-16T08:17:49;23.30;;;12.00;;
65853;SDS011;52627;48.838;2.402;2022-12-16T08:20:36;30.30;;;11.60;;
65853;SDS011;52627;48.838;2.402;2022-12-16T08:23:21;24.40;;;11.30;;
65853;SDS011;52627;48.838;2.402;2022-12-16T08:26:07;19.90;;;11.70;;
65853;SDS011;52627;48.838;2.402;2022-12-16T08:28:53;23.60;;;11.20;;
65853;SDS011;52627;48.838;2.402;2022-12-16T08:31:58;20.70;;;11.30;;
65853;SDS011;52627;48.838;2.402;2022-12-16T08:34:44;16.20;;;10.60;;
65853;SDS011;52627;48.838;2.402;2022-12-16T08:37:29;19.10;;;10.60;;
65853;SDS011;52627;48.838;2.402;2022-12-16T08:40:14;17.30;;;10.70;;
65853;SDS011;52627;48.838;2.402;2022-12-16T08:43:02;18.10;;;11.00;;
65853;SDS011;52627;48.838;2.402;2022-12-16T08:45:51;20.00;;;12.10;;
65853;SDS011;52627;48.838;2.402;2022-12-16T08:48:37;21.00;;;11.30;;
65853;SDS011;52627;48.838;2.402;2022-12-16T08:51:26;21.10;;;12.00;;
65853;SDS011;52627;48.838;2.402;2022-12-16T08:54:11;21.10;;;11.70;;
65853;SDS011;52627;48.838;2.402;2022-12-16T08:56:57;22.60;;;12.50;;
65853;SDS011;52627;48.838;2.402;2022-12-16T08:59:42;20.30;;;12.10;;
65853;SDS011;52627;48.838;2.402;2022-12-16T09:02:27;24.00;;;12.90;;
65853;SDS011;52627;48.838;2.402;2022-12-16T09:05:13;20.30;;;12.00;;
65853;SDS011;52627;48.838;2.402;2022-12-16T09:07:59;19.60;;;12.50;;
65853;SDS011;52627;48.838;2.402;2022-12-16T09:10:45;24.40;;;12.60;;
65853;SDS011;52627;48.838;2.402;2022-12-16T09:13:30;22.90;;;12.40;;
65853;SDS011;52627;48.838;2.402;2022-12-16T09:16:16;20.30;;;11.90;;
65853;SDS011;52627;48.838;2.402;2022-12-16T09:19:01;26.50;;;12.40;;
65853;SDS011;52627;48.838;2.402;2022-12-16T09:21:46;25.90;;;13.10;;
65853;SDS011;52627;48.838;2.402;2022-12-16T09:24:32;24.30;;;13.30;;
65853;SDS011;52627;48.838;2.402;2022-12-16T09:27:17;20.20;;;13.30;;
65853;SDS011;52627;48.838;2.402;2022-12-16T09:30:02;24.20;;;14.20;;
65853;SDS011;52627;48.838;2.402;2022-12-16T09:32:48;25.30;;;13.10;;
65853;SDS011;52627;48.838;2.402;2022-12-16T09:35:34;21.60;;;13.40;;
65853;SDS011;52627;48.838;2.402;2022-12-16T09:38:21;25.60;;;14.60;;
65853;SDS011;52627;48.838;2.402;2022-12-16T09:50:36;27.10;;;14.10;;
65853;SDS011;52627;48.838;2.402;2022-12-16T09:53:22;23.30;;;14.50;;
65853;SDS011;52627;48.838;2.402;2022-12-16T09:56:16;25.40;;;15.70;;
65853;SDS011;52627;48.838;2.402;2022-12-16T09:59:10;32.00;;;15.90;;
65853;SDS011;52627;48.838;2.402;2022-12-16T10:01:57;27.80;;;15.60;;
65853;SDS011;52627;48.838;2.402;2022-12-16T10:04:49;28.90;;;17.70;;
65853;SDS011;52627;48.838;2.402;2022-12-16T10:07:39;31.20;;;18.20;;
65853;SDS011;52627;48.838;2.402;2022-12-16T10:13:44;30.50;;;17.20;;
65853;SDS011;52627;48.838;2.402;2022-12-16T10:19:59;33.20;;;18.00;;
65853;SDS011;52627;48.838;2.402;2022-12-16T10:22:57;34.00;;;17.80;;
65853;SDS011;52627;48.838;2.402;2022-12-16T10:25:56;35.00;;;17.00;;
65853;SDS011;52627;48.838;2.402;2022-12-16T10:29:18;36.50;;;18.60;;
65853;SDS011;52627;48.838;2.402;2022-12-16T10:32:45;35.90;;;17.90;;
65853;SDS011;52627;48.838;2.402;2022-12-16T10:38:38;34.00;;;17.70;;
65853;SDS011;52627;48.838;2.402;2022-12-16T10:41:36;34.50;;;17.70;;
65853;SDS011;52627;48.838;2.402;2022-12-16T10:44:49;33.40;;;16.30;;
65853;SDS011;52627;48.838;2.402;2022-12-16T10:47:39;28.00;;;14.80;;
65853;SDS011;52627;48.838;2.402;2022-12-16T10:50:24;29.30;;;15.40;;
65853;SDS011;52627;48.838;2.402;2022-12-16T10:53:13;24.90;;;14.10;;
65853;SDS011;52627;48.838;2.402;2022-12-16T10:59:23;29.40;;;14.60;;
65853;SDS011;52627;48.838;2.402;2022-12-16T11:02:27;26.20;;;14.40;;
65853;SDS011;52627;48.838;2.402;2022-12-16T11:08:41;27.70;;;14.90;;
65853;SDS011;52627;48.838;2.402;2022-12-16T11:11:28;27.40;;;13.90;;
65853;SDS011;52627;48.838;2.402;2022-12-16T11:23:19;28.40;;;13.50;;
65853;SDS011;52627;48.838;2.402;2022-12-16T11:26:16;24.80;;;12.90;;
65853;SDS011;52627;48.838;2.402;2022-12-16T11:29:15;27.10;;;14.40;;
65853;SDS011;52627;48.838;2.402;2022-12-16T11:32:14;29.60;;;14.80;;
65853;SDS011;52627;48.838;2.402;2022-12-16T11:35:05;30.20;;;15.00;;
65853;SDS011;52627;48.838;2.402;2022-12-16T11:37:55;27.50;;;13.70;;
65853;SDS011;52627;48.838;2.402;2022-12-16T11:40:42;28.00;;;13.30;;
65853;SDS011;52627;48.838;2.402;2022-12-16T11:43:28;29.80;;;13.70;;
65853;SDS011;52627;48.838;2.402;2022-12-16T11:46:21;34.00;;;15.70;;
65853;SDS011;52627;48.838;2.402;2022-12-16T11:49:19;31.20;;;15.00;;
65853;SDS011;52627;48.838;2.402;2022-12-16T11:52:11;26.90;;;13.20;;
65853;SDS011;52627;48.838;2.402;2022-12-16T11:55:13;23.20;;;12.40;;
65853;SDS011;52627;48.838;2.402;2022-12-16T11:58:36;22.70;;;11.80;;
65853;SDS011;52627;48.838;2.402;2022-12-16T12:04:21;26.10;;;12.60;;
65853;SDS011;52627;48.838;2.402;2022-12-16T12:07:16;27.50;;;12.70;;
65853;SDS011;52627;48.838;2.402;2022-12-16T12:10:36;24.10;;;13.30;;
65853;SDS011;52627;48.838;2.402;2022-12-16T12:13:38;26.60;;;13.60;;
65853;SDS011;52627;48.838;2.402;2022-12-16T12:16:42;26.30;;;12.40;;
65853;SDS011;52627;48.838;2.402;2022-12-16T12:20:08;24.90;;;12.20;;
65853;SDS011;52627;48.838;2.402;2022-12-16T12:23:05;26.50;;;12.80;;
65853;SDS011;52627;48.838;2.402;2022-12-16T12:26:05;28.00;;;12.50;;
65853;SDS011;52627;48.838;2.402;2022-12-16T12:29:20;26.40;;;13.50;;
65853;SDS011;52627;48.838;2.402;2022-12-16T12:32:28;31.20;;;13.30;;
65853;SDS011;52627;48.838;2.402;2022-12-16T12:38:18;26.60;;;13.40;;
65853;SDS011;52627;48.838;2.402;2022-12-16T12:41:18;27.40;;;13.00;;
65853;SDS011;52627;48.838;2.402;2022-12-16T12:44:30;26.70;;;13.80;;
65853;SDS011;52627;48.838;2.402;2022-12-16T12:47:28;29.10;;;14.20;;
65853;SDS011;52627;48.838;2.402;2022-12-16T12:50:23;30.60;;;14.90;;
65853;SDS011;52627;48.838;2.402;2022-12-16T12:53:21;30.60;;;15.60;;
65853;SDS011;52627;48.838;2.402;2022-12-16T12:59:30;30.20;;;15.60;;
65853;SDS011;52627;48.838;2.402;2022-12-16T13:06:00;27.30;;;13.40;;
65853;SDS011;52627;48.838;2.402;2022-12-16T13:11:35;32.50;;;15.10;;
65853;SDS011;52627;48.838;2.402;2022-12-16T13:17:22;32.10;;;14.60;;
65853;SDS011;52627;48.838;2.402;2022-12-16T13:23:33;30.20;;;14.70;;
65853;SDS011;52627;48.838;2.402;2022-12-16T13:26:22;29.00;;;15.90;;
65853;SDS011;52627;48.838;2.402;2022-12-16T13:29:27;31.10;;;15.20;;
65853;SDS011;52627;48.838;2.402;2022-12-16T13:32:19;32.00;;;16.00;;
65853;SDS011;52627;48.838;2.402;2022-12-16T13:44:08;26.00;;;12.80;;
65853;SDS011;52627;48.838;2.402;2022-12-16T13:46:55;28.90;;;14.00;;
65853;SDS011;52627;48.838;2.402;2022-12-16T13:55:57;27.30;;;13.80;;
65853;SDS011;52627;48.838;2.402;2022-12-16T13:58:47;29.20;;;13.70;;
65853;SDS011;52627;48.838;2.402;2022-12-16T14:01:43;29.40;;;14.40;;
65853;SDS011;52627;48.838;2.402;2022-12-16T14:04:36;27.60;;;14.60;;
65853;SDS011;52627;48.838;2.402;2022-12-16T14:07:25;31.10;;;14.70;;
65853;SDS011;52627;48.838;2.402;2022-12-16T14:10:37;26.20;;;13.20;;
65853;SDS011;52627;48.838;2.402;2022-12-16T14:13:32;28.40;;;13.20;;
65853;SDS011;52627;48.838;2.402;2022-12-16T14:17:00;28.10;;;14.00;;
65853;SDS011;52627;48.838;2.402;2022-12-16T14:23:26;25.70;;;13.20;;
65853;SDS011;52627;48.838;2.402;2022-12-16T14:26:24;26.70;;;13.20;;
65853;SDS011;52627;48.838;2.402;2022-12-16T14:29:21;27.30;;;13.10;;
65853;SDS011;52627;48.838;2.402;2022-12-16T14:32:18;27.40;;;12.90;;
65853;SDS011;52627;48.838;2.402;2022-12-16T14:35:12;30.50;;;13.70;;
65853;SDS011;52627;48.838;2.402;2022-12-16T14:41:22;25.40;;;13.40;;
65853;SDS011;52627;48.838;2.402;2022-12-16T14:44:22;25.90;;;12.20;;
65853;SDS011;52627;48.838;2.402;2022-12-16T14:47:16;26.80;;;12.20;;
65853;SDS011;52627;48.838;2.402;2022-12-16T14:50:17;26.70;;;12.70;;
65853;SDS011;52627;48.838;2.402;2022-12-16T14:53:12;23.60;;;11.40;;
65853;SDS011;52627;48.838;2.402;2022-12-16T14:56:19;22.80;;;10.30;;
65853;SDS011;52627;48.838;2.402;2022-12-16T14:59:14;23.30;;;11.30;;
65853;SDS011;52627;48.838;2.402;2022-12-16T15:02:19;24.70;;;12.00;;
65853;SDS011;52627;48.838;2.402;2022-12-16T15:05:12;22.00;;;11.60;;
65853;SDS011;52627;48.838;2.402;2022-12-16T15:07:58;25.40;;;11.90;;
65853;SDS011;52627;48.838;2.402;2022-12-16T15:10:44;26.10;;;12.10;;
65853;SDS011;52627;48.838;2.402;2022-12-16T15:13:31;26.10;;;11.60;;
65853;SDS011;52627;48.838;2.402;2022-12-16T15:16:27;27.50;;;13.10;;
65853;SDS011;52627;48.838;2.402;2022-12-16T15:19:18;26.60;;;12.60;;
65853;SDS011;52627;48.838;2.402;2022-12-16T15:22:05;26.20;;;11.80;;
65853;SDS011;52627;48.838;2.402;2022-12-16T15:24:50;24.00;;;11.40;;
65853;SDS011;52627;48.838;2.402;2022-12-16T15:27:40;25.10;;;12.00;;
65853;SDS011;52627;48.838;2.402;2022-12-16T15:30:45;26.50;;;12.60;;
65853;SDS011;52627;48.838;2.402;2022-12-16T15:33:34;28.00;;;12.50;;
65853;SDS011;52627;48.838;2.402;2022-12-16T15:36:25;24.00;;;12.20;;
65853;SDS011;52627;48.838;2.402;2022-12-16T15:42:19;24.70;;;12.50;;
65853;SDS011;52627;48.838;2.402;2022-12-16T15:45:19;26.30;;;11.80;;
65853;SDS011;52627;48.838;2.402;2022-12-16T15:48:19;26.90;;;12.50;;
65853;SDS011;52627;48.838;2.402;2022-12-16T15:51:21;28.80;;;12.90;;
65853;SDS011;52627;48.838;2.402;2022-12-16T15:54:16;25.60;;;11.90;;
65853;SDS011;52627;48.838;2.402;2022-12-16T15:57:23;29.50;;;13.10;;
65853;SDS011;52627;48.838;2.402;2022-12-16T16:00:26;28.10;;;14.70;;
65853;SDS011;52627;48.838;2.402;2022-12-16T16:06:20;29.30;;;14.40;;
65853;SDS011;52627;48.838;2.402;2022-12-16T16:09:23;24.60;;;12.80;;
65853;SDS011;52627;48.838;2.402;2022-12-16T16:12:12;26.30;;;12.50;;
65853;SDS011;52627;48.838;2.402;2022-12-16T16:14:58;26.60;;;13.10;;
65853;SDS011;52627;48.838;2.402;2022-12-16T16:17:46;25.10;;;13.10;;
65853;SDS011;52627;48.838;2.402;2022-12-16T16:20:32;23.20;;;13.00;;
65853;SDS011;52627;48.838;2.402;2022-12-16T16:23:17;24.40;;;12.30;;
65853;SDS011;52627;48.838;2.402;2022-12-16T16:26:03;26.60;;;12.30;;
65853;SDS011;52627;48.838;2.402;2022-12-16T16:28:48;25.00;;;12.40;;
65853;SDS011;52627;48.838;2.402;2022-12-16T16:31:33;26.00;;;13.10;;
65853;SDS011;52627;48.838;2.402;2022-12-16T16:34:19;23.90;;;11.90;;
65853;SDS011;52627;48.838;2.402;2022-12-16T16:37:12;26.70;;;13.00;;
65853;SDS011;52627;48.838;2.402;2022-12-16T16:39:59;27.40;;;12.50;;
65853;SDS011;52627;48.838;2.402;2022-12-16T16:42:45;27.20;;;13.10;;
65853;SDS011;52627;48.838;2.402;2022-12-16T16:45:30;22.40;;;11.50;;
65853;SDS011;52627;48.838;2.402;2022-12-16T16:48:17;27.50;;;13.10;;
65853;SDS011;52627;48.838;2.402;2022-12-16T16:51:02;22.60;;;11.70;;
65853;SDS011;52627;48.838;2.402;2022-12-16T16:53:48;25.20;;;12.40;;
65853;SDS011;52627;48.838;2.402;2022-12-16T16:56:35;22.60;;;11.90;;
65853;SDS011;52627;48.838;2.402;2022-12-16T16:59:22;22.70;;;11.30;;
65853;SDS011;52627;48.838;2.402;2022-12-16T17:02:20;23.50;;;11.30;;
65853;SDS011;52627;48.838;2.402;2022-12-16T17:05:09;22.00;;;11.60;;
65853;SDS011;52627;48.838;2.402;2022-12-16T17:07:55;23.30;;;11.40;;
65853;SDS011;52627;48.838;2.402;2022-12-16T17:10:41;26.20;;;11.80;;
65853;SDS011;52627;48.838;2.402;2022-12-16T17:13:27;24.60;;;11.60;;
65853;SDS011;52627;48.838;2.402;2022-12-16T17:16:13;25.70;;;12.30;;
65853;SDS011;52627;48.838;2.402;2022-12-16T17:19:01;27.80;;;12.60;;
65853;SDS011;52627;48.838;2.402;2022-12-16T17:21:49;22.90;;;11.40;;
65853;SDS011;52627;48.838;2.402;2022-12-16T17:24:34;21.10;;;11.80;;
65853;SDS011;52627;48.838;2.402;2022-12-16T17:27:23;26.10;;;12.60;;
65853;SDS011;52627;48.838;2.402;2022-12-16T17:30:15;26.00;;;11.50;;
65853;SDS011;52627;48.838;2.402;2022-12-16T17:33:02;25.30;;;13.60;;
65853;SDS011;52627;48.838;2.402;2022-12-16T17:35:48;24.40;;;11.20;;
65853;SDS011;52627;48.838;2.402;2022-12-16T17:38:39;27.00;;;12.50;;
65853;SDS011;52627;48.838;2.402;2022-12-16T17:41:27;24.70;;;12.50;;
65853;SDS011;52627;48.838;2.402;2022-12-16T17:44:13;24.50;;;11.80;;
65853;SDS011;52627;48.838;2.402;2022-12-16T17:46:59;27.80;;;13.20;;
65853;SDS011;52627;48.838;2.402;2022-12-16T17:49:44;26.30;;;13.10;;
65853;SDS011;52627;48.838;2.402;2022-12-16T17:52:30;27.20;;;13.70;;
65853;SDS011;52627;48.838;2.402;2022-12-16T17:55:16;31.80;;;14.10;;
65853;SDS011;52627;48.838;2.402;2022-12-16T17:58:01;32.30;;;16.10;;
65853;SDS011;52627;48.838;2.402;2022-12-16T18:00:46;26.40;;;13.60;;